Terminal Aerodrome Forecast
Issued by NWS Twin Cities, MN

Home | Current Version | Previous Version | Graphics & Text | Print | Product List | Glossary On
Versions: 1 2 3 4 5 6 7 8 9 10 11 12 13 14 15 16 17 18 19 20 21 22 23 24 25 26 27 28 29 30 31 32 33 34 35 36 37
324
FTUS43 KMPX 251454 AAA
TAFMSP
TAF AMD
KMSP 251454Z 2515/2618 33008KT P6SM VCSH BKN010 OVC015
      TEMPO 2515/2518 4SM SHRA SCT010 OVC018
     FM251800 35007KT P6SM BKN015 OVC020
     FM260200 36007KT P6SM VCSH OVC010
     FM260800 36005KT 6SM -SHRA BR BKN007 OVC010
     FM261400 31005KT P6SM OVC008=

USA.gov is the U.S. government's official web portal to all federal, state and local government web resources and services.